Řízení letového provozu České republiky
Letiste: LKNA Aktualizace: 19.09.2018 18:01:06  UTC
 METAR LKNA 19.09. 18:00 ...
METAR LKNA 191800Z 14003KT CAVOK 19/14 Q1022 NOSIG RMK BLU BLU=
 TAF LKNA 19.09. 17:00 ...
TAF LKNA 191700Z 1918/2018 14004KT CAVOK      TEMPO 2000/2006 3000 BR NSC      BECMG 2008/2010 23004KT=